sensor_id;sensor_type;location;lat;lon;timestamp;temperature;humidity
40077;DHT22;25777;47.824;18.982;2023-04-25T00:01:38;10.90;99.90
40077;DHT22;25777;47.824;18.982;2023-04-25T00:04:05;11.00;99.90
40077;DHT22;25777;47.824;18.982;2023-04-25T00:06:31;11.00;99.90
40077;DHT22;25777;47.824;18.982;2023-04-25T00:08:59;11.00;99.90
40077;DHT22;25777;47.824;18.982;2023-04-25T00:11:26;11.00;99.90
40077;DHT22;25777;47.824;18.982;2023-04-25T00:13:54;10.90;99.90
40077;DHT22;25777;47.824;18.982;2023-04-25T00:16:20;10.90;99.90
40077;DHT22;25777;47.824;18.982;2023-04-25T00:18:46;10.90;99.90
40077;DHT22;25777;47.824;18.982;2023-04-25T00:21:17;10.90;99.90
40077;DHT22;25777;47.824;18.982;2023-04-25T00:23:44;10.90;99.90
40077;DHT22;25777;47.824;18.982;2023-04-25T00:26:13;10.90;99.90
40077;DHT22;25777;47.824;18.982;2023-04-25T00:28:40;10.90;99.90
40077;DHT22;25777;47.824;18.982;2023-04-25T00:31:06;10.90;99.90
40077;DHT22;25777;47.824;18.982;2023-04-25T00:33:31;10.90;99.90
40077;DHT22;25777;47.824;18.982;2023-04-25T00:35:57;10.80;99.90
40077;DHT22;25777;47.824;18.982;2023-04-25T00:38:25;10.70;99.90
40077;DHT22;25777;47.824;18.982;2023-04-25T00:40:52;10.70;99.90
40077;DHT22;25777;47.824;18.982;2023-04-25T00:43:18;10.80;99.90
40077;DHT22;25777;47.824;18.982;2023-04-25T00:45:44;10.70;99.90
40077;DHT22;25777;47.824;18.982;2023-04-25T00:48:14;10.70;99.90
40077;DHT22;25777;47.824;18.982;2023-04-25T00:50:50;10.60;99.90
40077;DHT22;25777;47.824;18.982;2023-04-25T00:53:16;10.60;99.90
40077;DHT22;25777;47.824;18.982;2023-04-25T00:55:42;10.60;99.90
40077;DHT22;25777;47.824;18.982;2023-04-25T00:58:09;10.60;99.90
40077;DHT22;25777;47.824;18.982;2023-04-25T01:00:35;10.70;99.90
40077;DHT22;25777;47.824;18.982;2023-04-25T01:03:01;10.70;99.90
40077;DHT22;25777;47.824;18.982;2023-04-25T01:05:29;10.60;99.90
40077;DHT22;25777;47.824;18.982;2023-04-25T01:07:55;10.60;99.90
40077;DHT22;25777;47.824;18.982;2023-04-25T01:10:21;10.60;99.90
40077;DHT22;25777;47.824;18.982;2023-04-25T01:12:47;10.60;99.90
40077;DHT22;25777;47.824;18.982;2023-04-25T01:15:14;10.60;99.90
40077;DHT22;25777;47.824;18.982;2023-04-25T01:17:40;10.60;99.90
40077;DHT22;25777;47.824;18.982;2023-04-25T01:20:06;10.60;99.90
40077;DHT22;25777;47.824;18.982;2023-04-25T01:22:33;10.60;99.90
40077;DHT22;25777;47.824;18.982;2023-04-25T01:24:59;10.70;99.90
40077;DHT22;25777;47.824;18.982;2023-04-25T01:27:27;10.60;99.90
40077;DHT22;25777;47.824;18.982;2023-04-25T01:29:53;10.60;99.90
40077;DHT22;25777;47.824;18.982;2023-04-25T01:32:21;10.60;99.90
40077;DHT22;25777;47.824;18.982;2023-04-25T01:34:48;10.60;99.90
40077;DHT22;25777;47.824;18.982;2023-04-25T01:37:15;10.60;99.90
40077;DHT22;25777;47.824;18.982;2023-04-25T01:39:41;10.70;99.90
40077;DHT22;25777;47.824;18.982;2023-04-25T01:42:08;10.60;99.90
40077;DHT22;25777;47.824;18.982;2023-04-25T01:47:08;10.60;99.90
40077;DHT22;25777;47.824;18.982;2023-04-25T01:49:35;10.70;99.90
40077;DHT22;25777;47.824;18.982;2023-04-25T01:52:01;10.70;99.90
40077;DHT22;25777;47.824;18.982;2023-04-25T01:54:27;10.70;99.90
40077;DHT22;25777;47.824;18.982;2023-04-25T01:56:52;10.60;99.90
40077;DHT22;25777;47.824;18.982;2023-04-25T01:59:23;10.60;99.90
40077;DHT22;25777;47.824;18.982;2023-04-25T02:01:49;10.60;99.90
40077;DHT22;25777;47.824;18.982;2023-04-25T02:04:21;10.60;99.90
40077;DHT22;25777;47.824;18.982;2023-04-25T02:09:19;10.60;99.90
40077;DHT22;25777;47.824;18.982;2023-04-25T02:11:47;10.50;99.90
40077;DHT22;25777;47.824;18.982;2023-04-25T02:14:13;10.60;99.90
40077;DHT22;25777;47.824;18.982;2023-04-25T02:16:40;10.60;99.90
40077;DHT22;25777;47.824;18.982;2023-04-25T02:19:06;10.60;99.90
40077;DHT22;25777;47.824;18.982;2023-04-25T02:21:33;10.60;99.90
40077;DHT22;25777;47.824;18.982;2023-04-25T02:24:01;10.60;99.90
40077;DHT22;25777;47.824;18.982;2023-04-25T02:26:27;10.60;99.90
40077;DHT22;25777;47.824;18.982;2023-04-25T02:28:53;10.50;99.90
40077;DHT22;25777;47.824;18.982;2023-04-25T02:31:18;10.60;99.90
40077;DHT22;25777;47.824;18.982;2023-04-25T02:33:44;10.60;99.90
40077;DHT22;25777;47.824;18.982;2023-04-25T02:36:10;10.50;99.90
40077;DHT22;25777;47.824;18.982;2023-04-25T02:38:38;10.60;99.90
40077;DHT22;25777;47.824;18.982;2023-04-25T02:41:04;10.60;99.90
40077;DHT22;25777;47.824;18.982;2023-04-25T02:43:31;10.60;99.90
40077;DHT22;25777;47.824;18.982;2023-04-25T02:45:57;10.60;99.90
40077;DHT22;25777;47.824;18.982;2023-04-25T02:48:23;10.60;99.90
40077;DHT22;25777;47.824;18.982;2023-04-25T02:50:48;10.60;99.90
40077;DHT22;25777;47.824;18.982;2023-04-25T02:55:58;10.50;99.90
40077;DHT22;25777;47.824;18.982;2023-04-25T02:58:24;10.60;99.90
40077;DHT22;25777;47.824;18.982;2023-04-25T03:00:50;10.60;99.90
40077;DHT22;25777;47.824;18.982;2023-04-25T03:03:16;10.50;99.90
40077;DHT22;25777;47.824;18.982;2023-04-25T03:08:20;10.50;99.90
40077;DHT22;25777;47.824;18.982;2023-04-25T03:10:46;10.50;99.90
40077;DHT22;25777;47.824;18.982;2023-04-25T03:13:13;10.50;99.90
40077;DHT22;25777;47.824;18.982;2023-04-25T03:15:39;10.50;99.90
40077;DHT22;25777;47.824;18.982;2023-04-25T03:20:39;10.50;99.90
40077;DHT22;25777;47.824;18.982;2023-04-25T03:23:08;10.50;99.90
40077;DHT22;25777;47.824;18.982;2023-04-25T03:25:34;10.40;99.90
40077;DHT22;25777;47.824;18.982;2023-04-25T03:28:02;10.50;99.90
40077;DHT22;25777;47.824;18.982;2023-04-25T03:30:28;10.50;99.90
40077;DHT22;25777;47.824;18.982;2023-04-25T03:35:24;10.40;99.90
40077;DHT22;25777;47.824;18.982;2023-04-25T03:37:50;10.40;99.90
40077;DHT22;25777;47.824;18.982;2023-04-25T03:40:16;10.40;99.90
40077;DHT22;25777;47.824;18.982;2023-04-25T03:42:42;10.40;99.90
40077;DHT22;25777;47.824;18.982;2023-04-25T03:45:08;10.30;99.90
40077;DHT22;25777;47.824;18.982;2023-04-25T03:47:35;10.30;99.90
40077;DHT22;25777;47.824;18.982;2023-04-25T03:50:01;10.20;99.90
40077;DHT22;25777;47.824;18.982;2023-04-25T03:52:29;10.20;99.90
40077;DHT22;25777;47.824;18.982;2023-04-25T03:54:56;10.20;99.90
40077;DHT22;25777;47.824;18.982;2023-04-25T03:57:22;10.10;99.90
40077;DHT22;25777;47.824;18.982;2023-04-25T03:59:48;10.10;99.90
40077;DHT22;25777;47.824;18.982;2023-04-25T04:02:13;10.00;99.90
40077;DHT22;25777;47.824;18.982;2023-04-25T04:04:39;10.00;99.90
40077;DHT22;25777;47.824;18.982;2023-04-25T04:07:07;9.90;99.90
40077;DHT22;25777;47.824;18.982;2023-04-25T04:09:33;9.90;99.90
40077;DHT22;25777;47.824;18.982;2023-04-25T04:14:34;9.90;99.90
40077;DHT22;25777;47.824;18.982;2023-04-25T04:17:00;9.80;99.90
40077;DHT22;25777;47.824;18.982;2023-04-25T04:19:26;9.80;99.90
40077;DHT22;25777;47.824;18.982;2023-04-25T04:21:53;9.80;99.90
40077;DHT22;25777;47.824;18.982;2023-04-25T04:24:26;9.70;99.90
40077;DHT22;25777;47.824;18.982;2023-04-25T04:26:55;9.70;99.90
40077;DHT22;25777;47.824;18.982;2023-04-25T04:29:22;9.70;99.90
40077;DHT22;25777;47.824;18.982;2023-04-25T04:31:51;9.70;99.90
40077;DHT22;25777;47.824;18.982;2023-04-25T04:34:19;9.80;99.90
40077;DHT22;25777;47.824;18.982;2023-04-25T04:36:46;9.70;99.90
40077;DHT22;25777;47.824;18.982;2023-04-25T04:39:12;9.70;99.90
40077;DHT22;25777;47.824;18.982;2023-04-25T04:41:44;9.70;99.90
40077;DHT22;25777;47.824;18.982;2023-04-25T04:44:18;9.70;99.90
40077;DHT22;25777;47.824;18.982;2023-04-25T04:46:45;9.70;99.90
40077;DHT22;25777;47.824;18.982;2023-04-25T04:51:54;9.60;99.90
40077;DHT22;25777;47.824;18.982;2023-04-25T04:54:20;9.60;99.90
40077;DHT22;25777;47.824;18.982;2023-04-25T04:56:46;9.50;99.90
40077;DHT22;25777;47.824;18.982;2023-04-25T04:59:12;9.50;99.90
40077;DHT22;25777;47.824;18.982;2023-04-25T05:04:08;9.60;99.90
40077;DHT22;25777;47.824;18.982;2023-04-25T05:09:06;9.50;99.90
40077;DHT22;25777;47.824;18.982;2023-04-25T05:11:32;9.60;99.90
40077;DHT22;25777;47.824;18.982;2023-04-25T05:16:27;9.60;99.90
40077;DHT22;25777;47.824;18.982;2023-04-25T05:18:53;9.50;99.90
40077;DHT22;25777;47.824;18.982;2023-04-25T05:21:20;9.60;99.90
40077;DHT22;25777;47.824;18.982;2023-04-25T05:23:46;9.60;99.90
40077;DHT22;25777;47.824;18.982;2023-04-25T05:26:18;9.50;99.90
40077;DHT22;25777;47.824;18.982;2023-04-25T05:31:18;9.50;99.90
40077;DHT22;25777;47.824;18.982;2023-04-25T05:33:45;9.50;99.90
40077;DHT22;25777;47.824;18.982;2023-04-25T05:36:14;9.50;99.90
40077;DHT22;25777;47.824;18.982;2023-04-25T05:38:53;9.60;99.90
40077;DHT22;25777;47.824;18.982;2023-04-25T05:41:20;9.50;99.90
40077;DHT22;25777;47.824;18.982;2023-04-25T05:43:53;9.50;99.90
40077;DHT22;25777;47.824;18.982;2023-04-25T05:46:20;9.50;99.90
40077;DHT22;25777;47.824;18.982;2023-04-25T05:48:48;9.40;99.90
40077;DHT22;25777;47.824;18.982;2023-04-25T05:51:14;9.40;99.90
40077;DHT22;25777;47.824;18.982;2023-04-25T05:53:41;9.30;99.90
40077;DHT22;25777;47.824;18.982;2023-04-25T05:56:06;9.40;99.90
40077;DHT22;25777;47.824;18.982;2023-04-25T05:58:34;9.40;99.90
40077;DHT22;25777;47.824;18.982;2023-04-25T06:01:09;9.40;99.90
40077;DHT22;25777;47.824;18.982;2023-04-25T06:03:35;9.40;99.90
40077;DHT22;25777;47.824;18.982;2023-04-25T06:06:03;9.40;99.90
40077;DHT22;25777;47.824;18.982;2023-04-25T06:08:32;9.40;99.90
40077;DHT22;25777;47.824;18.982;2023-04-25T06:10:59;9.40;99.90
40077;DHT22;25777;47.824;18.982;2023-04-25T06:13:26;9.50;99.90
40077;DHT22;25777;47.824;18.982;2023-04-25T06:15:52;9.50;99.90
40077;DHT22;25777;47.824;18.982;2023-04-25T06:18:18;9.50;99.90
40077;DHT22;25777;47.824;18.982;2023-04-25T06:20:52;9.40;99.90
40077;DHT22;25777;47.824;18.982;2023-04-25T06:23:17;9.50;99.90
40077;DHT22;25777;47.824;18.982;2023-04-25T06:31:08;9.40;99.90
40077;DHT22;25777;47.824;18.982;2023-04-25T06:33:34;9.50;99.90
40077;DHT22;25777;47.824;18.982;2023-04-25T06:38:32;9.60;99.90
40077;DHT22;25777;47.824;18.982;2023-04-25T06:41:00;9.60;99.90
40077;DHT22;25777;47.824;18.982;2023-04-25T06:43:26;9.60;99.90
40077;DHT22;25777;47.824;18.982;2023-04-25T06:45:52;9.60;99.90
40077;DHT22;25777;47.824;18.982;2023-04-25T06:48:23;9.60;99.90
40077;DHT22;25777;47.824;18.982;2023-04-25T06:50:48;9.70;99.90
40077;DHT22;25777;47.824;18.982;2023-04-25T06:55:46;9.80;99.90
40077;DHT22;25777;47.824;18.982;2023-04-25T06:58:13;9.80;99.90
40077;DHT22;25777;47.824;18.982;2023-04-25T07:00:39;9.90;99.90
40077;DHT22;25777;47.824;18.982;2023-04-25T07:03:05;10.00;99.90
40077;DHT22;25777;47.824;18.982;2023-04-25T07:05:32;9.90;99.90
40077;DHT22;25777;47.824;18.982;2023-04-25T07:08:00;10.00;99.90
40077;DHT22;25777;47.824;18.982;2023-04-25T07:10:26;10.10;99.90
40077;DHT22;25777;47.824;18.982;2023-04-25T07:12:51;10.10;99.90
40077;DHT22;25777;47.824;18.982;2023-04-25T07:15:24;10.30;99.90
40077;DHT22;25777;47.824;18.982;2023-04-25T07:17:50;10.30;99.90
40077;DHT22;25777;47.824;18.982;2023-04-25T07:20:16;10.40;99.90
40077;DHT22;25777;47.824;18.982;2023-04-25T07:22:42;10.50;99.90
40077;DHT22;25777;47.824;18.982;2023-04-25T07:25:09;10.60;99.90
40077;DHT22;25777;47.824;18.982;2023-04-25T07:27:37;10.50;99.90
40077;DHT22;25777;47.824;18.982;2023-04-25T07:30:03;10.50;99.90
40077;DHT22;25777;47.824;18.982;2023-04-25T07:32:29;10.50;99.90
40077;DHT22;25777;47.824;18.982;2023-04-25T07:34:56;10.50;99.90
40077;DHT22;25777;47.824;18.982;2023-04-25T07:37:22;10.50;99.90
40077;DHT22;25777;47.824;18.982;2023-04-25T07:39:48;10.50;99.90
40077;DHT22;25777;47.824;18.982;2023-04-25T07:42:15;10.50;99.90
40077;DHT22;25777;47.824;18.982;2023-04-25T07:44:41;10.50;99.90
40077;DHT22;25777;47.824;18.982;2023-04-25T07:47:08;10.50;99.90
40077;DHT22;25777;47.824;18.982;2023-04-25T07:49:46;10.50;99.90
40077;DHT22;25777;47.824;18.982;2023-04-25T07:52:11;10.50;99.90
40077;DHT22;25777;47.824;18.982;2023-04-25T07:54:38;10.50;99.90
40077;DHT22;25777;47.824;18.982;2023-04-25T07:57:04;10.50;99.90
40077;DHT22;25777;47.824;18.982;2023-04-25T07:59:33;10.50;99.90
40077;DHT22;25777;47.824;18.982;2023-04-25T08:04:57;10.60;99.90
40077;DHT22;25777;47.824;18.982;2023-04-25T08:10:02;10.80;99.90
40077;DHT22;25777;47.824;18.982;2023-04-25T08:15:02;11.00;99.90
40077;DHT22;25777;47.824;18.982;2023-04-25T08:17:34;11.10;99.90
40077;DHT22;25777;47.824;18.982;2023-04-25T08:20:00;11.20;99.90
40077;DHT22;25777;47.824;18.982;2023-04-25T08:22:25;11.30;99.90
40077;DHT22;25777;47.824;18.982;2023-04-25T08:27:26;11.40;99.90
40077;DHT22;25777;47.824;18.982;2023-04-25T08:29:53;11.70;99.90
40077;DHT22;25777;47.824;18.982;2023-04-25T08:34:48;11.80;99.90
40077;DHT22;25777;47.824;18.982;2023-04-25T08:37:14;12.00;99.90
40077;DHT22;25777;47.824;18.982;2023-04-25T08:39:41;12.10;99.90
40077;DHT22;25777;47.824;18.982;2023-04-25T08:44:49;11.90;99.90
40077;DHT22;25777;47.824;18.982;2023-04-25T08:49:45;11.90;99.90
40077;DHT22;25777;47.824;18.982;2023-04-25T08:52:12;12.00;99.90
40077;DHT22;25777;47.824;18.982;2023-04-25T08:54:43;12.00;99.90
40077;DHT22;25777;47.824;18.982;2023-04-25T08:57:16;12.00;99.90
40077;DHT22;25777;47.824;18.982;2023-04-25T08:59:42;12.00;99.90
40077;DHT22;25777;47.824;18.982;2023-04-25T09:02:11;12.00;99.90
40077;DHT22;25777;47.824;18.982;2023-04-25T09:04:42;11.90;99.90
40077;DHT22;25777;47.824;18.982;2023-04-25T09:07:21;11.90;99.90
40077;DHT22;25777;47.824;18.982;2023-04-25T09:09:49;12.10;99.90
40077;DHT22;25777;47.824;18.982;2023-04-25T09:12:19;12.30;99.90
40077;DHT22;25777;47.824;18.982;2023-04-25T09:15:07;12.30;99.90
40077;DHT22;25777;47.824;18.982;2023-04-25T09:17:34;12.20;99.90
40077;DHT22;25777;47.824;18.982;2023-04-25T09:20:10;12.20;99.90
40077;DHT22;25777;47.824;18.982;2023-04-25T09:22:37;12.30;99.90
40077;DHT22;25777;47.824;18.982;2023-04-25T09:25:07;12.30;99.90
40077;DHT22;25777;47.824;18.982;2023-04-25T09:30:03;12.40;99.90
40077;DHT22;25777;47.824;18.982;2023-04-25T09:32:29;12.30;99.90
40077;DHT22;25777;47.824;18.982;2023-04-25T09:34:57;12.50;99.90
40077;DHT22;25777;47.824;18.982;2023-04-25T09:40:04;12.50;99.90
40077;DHT22;25777;47.824;18.982;2023-04-25T09:42:31;12.50;99.90
40077;DHT22;25777;47.824;18.982;2023-04-25T09:45:01;12.70;99.90
40077;DHT22;25777;47.824;18.982;2023-04-25T09:47:30;12.30;99.90
40077;DHT22;25777;47.824;18.982;2023-04-25T09:50:13;12.40;99.90
40077;DHT22;25777;47.824;18.982;2023-04-25T09:52:42;12.50;99.90
40077;DHT22;25777;47.824;18.982;2023-04-25T09:57:37;12.60;99.90
40077;DHT22;25777;47.824;18.982;2023-04-25T10:00:06;12.60;99.90
40077;DHT22;25777;47.824;18.982;2023-04-25T10:02:35;12.70;99.90
40077;DHT22;25777;47.824;18.982;2023-04-25T10:07:31;12.50;99.90
40077;DHT22;25777;47.824;18.982;2023-04-25T10:10:07;12.50;99.90
40077;DHT22;25777;47.824;18.982;2023-04-25T10:12:41;12.50;99.90
40077;DHT22;25777;47.824;18.982;2023-04-25T10:15:15;12.50;99.90
40077;DHT22;25777;47.824;18.982;2023-04-25T10:17:41;12.50;99.90
40077;DHT22;25777;47.824;18.982;2023-04-25T10:20:07;12.60;99.90
40077;DHT22;25777;47.824;18.982;2023-04-25T10:22:36;12.70;99.90
40077;DHT22;25777;47.824;18.982;2023-04-25T10:25:17;12.60;99.90
40077;DHT22;25777;47.824;18.982;2023-04-25T10:27:46;12.60;99.90
40077;DHT22;25777;47.824;18.982;2023-04-25T10:30:21;12.80;99.90
40077;DHT22;25777;47.824;18.982;2023-04-25T10:35:53;12.90;99.90
40077;DHT22;25777;47.824;18.982;2023-04-25T10:38:31;12.80;99.90
40077;DHT22;25777;47.824;18.982;2023-04-25T10:43:50;12.90;99.90
40077;DHT22;25777;47.824;18.982;2023-04-25T10:46:25;13.20;99.90
40077;DHT22;25777;47.824;18.982;2023-04-25T10:51:58;13.30;99.90
40077;DHT22;25777;47.824;18.982;2023-04-25T10:57:06;13.40;99.90
40077;DHT22;25777;47.824;18.982;2023-04-25T10:59:31;13.40;99.90
40077;DHT22;25777;47.824;18.982;2023-04-25T11:04:47;13.60;99.90
40077;DHT22;25777;47.824;18.982;2023-04-25T11:10:04;13.60;99.70
40077;DHT22;25777;47.824;18.982;2023-04-25T11:12:31;13.70;99.90
40077;DHT22;25777;47.824;18.982;2023-04-25T11:15:05;13.90;98.90
40077;DHT22;25777;47.824;18.982;2023-04-25T11:17:31;14.20;98.50
40077;DHT22;25777;47.824;18.982;2023-04-25T11:19:57;14.30;97.10
40077;DHT22;25777;47.824;18.982;2023-04-25T11:22:25;14.40;95.10
40077;DHT22;25777;47.824;18.982;2023-04-25T11:24:51;14.50;95.10
40077;DHT22;25777;47.824;18.982;2023-04-25T11:27:19;14.60;94.80
40077;DHT22;25777;47.824;18.982;2023-04-25T11:29:48;14.40;93.40
40077;DHT22;25777;47.824;18.982;2023-04-25T11:35:10;14.70;92.50
40077;DHT22;25777;47.824;18.982;2023-04-25T11:40:09;15.00;93.80
40077;DHT22;25777;47.824;18.982;2023-04-25T11:42:39;14.50;91.20
40077;DHT22;25777;47.824;18.982;2023-04-25T11:45:05;14.40;92.60
40077;DHT22;25777;47.824;18.982;2023-04-25T11:47:32;14.80;91.20
40077;DHT22;25777;47.824;18.982;2023-04-25T11:50:02;14.80;88.70
40077;DHT22;25777;47.824;18.982;2023-04-25T11:52:40;14.40;90.30
40077;DHT22;25777;47.824;18.982;2023-04-25T11:55:09;14.50;89.20
40077;DHT22;25777;47.824;18.982;2023-04-25T11:57:48;14.30;85.90
40077;DHT22;25777;47.824;18.982;2023-04-25T12:00:16;14.20;90.70
40077;DHT22;25777;47.824;18.982;2023-04-25T12:02:43;14.10;91.50
40077;DHT22;25777;47.824;18.982;2023-04-25T12:05:10;14.30;92.90
40077;DHT22;25777;47.824;18.982;2023-04-25T12:07:36;14.30;92.00
40077;DHT22;25777;47.824;18.982;2023-04-25T12:10:06;14.20;92.80
40077;DHT22;25777;47.824;18.982;2023-04-25T12:12:35;14.00;92.50
40077;DHT22;25777;47.824;18.982;2023-04-25T12:20:12;14.70;92.50
40077;DHT22;25777;47.824;18.982;2023-04-25T12:22:38;14.90;91.80
40077;DHT22;25777;47.824;18.982;2023-04-25T12:25:07;14.80;90.90
40077;DHT22;25777;47.824;18.982;2023-04-25T12:27:35;14.60;91.20
40077;DHT22;25777;47.824;18.982;2023-04-25T12:30:03;15.00;92.90
40077;DHT22;25777;47.824;18.982;2023-04-25T12:32:29;14.90;91.70
40077;DHT22;25777;47.824;18.982;2023-04-25T12:34:58;14.90;90.80
40077;DHT22;25777;47.824;18.982;2023-04-25T12:37:25;14.90;90.20
40077;DHT22;25777;47.824;18.982;2023-04-25T12:39:51;15.20;87.20
40077;DHT22;25777;47.824;18.982;2023-04-25T12:42:19;15.30;88.50
40077;DHT22;25777;47.824;18.982;2023-04-25T12:44:45;15.70;89.90
40077;DHT22;25777;47.824;18.982;2023-04-25T12:49:48;15.50;82.00
40077;DHT22;25777;47.824;18.982;2023-04-25T12:54:46;15.90;79.80
40077;DHT22;25777;47.824;18.982;2023-04-25T12:57:11;16.10;80.30
40077;DHT22;25777;47.824;18.982;2023-04-25T12:59:44;16.50;79.60
40077;DHT22;25777;47.824;18.982;2023-04-25T13:04:41;15.80;78.30
40077;DHT22;25777;47.824;18.982;2023-04-25T13:07:17;16.20;80.00
40077;DHT22;25777;47.824;18.982;2023-04-25T13:12:24;16.00;80.70
40077;DHT22;25777;47.824;18.982;2023-04-25T13:14:50;16.20;79.20
40077;DHT22;25777;47.824;18.982;2023-04-25T13:25:17;16.30;70.50
40077;DHT22;25777;47.824;18.982;2023-04-25T13:27:45;16.80;71.30
40077;DHT22;25777;47.824;18.982;2023-04-25T13:30:13;17.00;70.60
40077;DHT22;25777;47.824;18.982;2023-04-25T13:37:41;17.10;69.70
40077;DHT22;25777;47.824;18.982;2023-04-25T13:40:14;17.20;72.00
40077;DHT22;25777;47.824;18.982;2023-04-25T13:42:41;17.00;69.50
40077;DHT22;25777;47.824;18.982;2023-04-25T13:45:11;16.30;68.30
40077;DHT22;25777;47.824;18.982;2023-04-25T13:47:41;16.70;72.20
40077;DHT22;25777;47.824;18.982;2023-04-25T13:50:15;17.00;75.40
40077;DHT22;25777;47.824;18.982;2023-04-25T13:55:40;17.40;68.70
40077;DHT22;25777;47.824;18.982;2023-04-25T13:58:06;17.20;64.70
40077;DHT22;25777;47.824;18.982;2023-04-25T14:08:28;17.30;63.90
40077;DHT22;25777;47.824;18.982;2023-04-25T14:10:54;17.30;63.40
40077;DHT22;25777;47.824;18.982;2023-04-25T14:13:24;17.30;62.90
40077;DHT22;25777;47.824;18.982;2023-04-25T14:15:50;16.50;62.90
40077;DHT22;25777;47.824;18.982;2023-04-25T14:18:22;15.70;62.40
40077;DHT22;25777;47.824;18.982;2023-04-25T14:20:48;15.80;62.50
40077;DHT22;25777;47.824;18.982;2023-04-25T14:23:14;16.20;65.40
40077;DHT22;25777;47.824;18.982;2023-04-25T14:25:45;16.50;63.20
40077;DHT22;25777;47.824;18.982;2023-04-25T14:28:13;16.50;60.70
40077;DHT22;25777;47.824;18.982;2023-04-25T14:30:39;16.60;64.50
40077;DHT22;25777;47.824;18.982;2023-04-25T14:33:05;16.70;61.70
40077;DHT22;25777;47.824;18.982;2023-04-25T14:38:09;16.40;64.20
40077;DHT22;25777;47.824;18.982;2023-04-25T14:40:36;16.10;61.30
40077;DHT22;25777;47.824;18.982;2023-04-25T14:43:04;16.30;64.40
40077;DHT22;25777;47.824;18.982;2023-04-25T14:45:30;16.50;64.20
40077;DHT22;25777;47.824;18.982;2023-04-25T14:47:56;16.00;62.20
40077;DHT22;25777;47.824;18.982;2023-04-25T14:50:22;15.20;62.90
40077;DHT22;25777;47.824;18.982;2023-04-25T14:55:27;15.70;64.70
40077;DHT22;25777;47.824;18.982;2023-04-25T14:57:55;16.10;64.40
40077;DHT22;25777;47.824;18.982;2023-04-25T15:00:22;15.90;64.00
40077;DHT22;25777;47.824;18.982;2023-04-25T15:02:49;15.70;63.20
40077;DHT22;25777;47.824;18.982;2023-04-25T15:07:52;15.70;65.10
40077;DHT22;25777;47.824;18.982;2023-04-25T15:15:25;15.20;65.40
40077;DHT22;25777;47.824;18.982;2023-04-25T15:17:56;15.30;65.70
40077;DHT22;25777;47.824;18.982;2023-04-25T15:20:33;15.00;63.80
40077;DHT22;25777;47.824;18.982;2023-04-25T15:23:16;14.90;66.10
40077;DHT22;25777;47.824;18.982;2023-04-25T15:25:49;14.70;67.50
40077;DHT22;25777;47.824;18.982;2023-04-25T15:28:16;14.70;69.80
40077;DHT22;25777;47.824;18.982;2023-04-25T15:30:42;14.60;68.50
40077;DHT22;25777;47.824;18.982;2023-04-25T15:33:15;14.50;68.50
40077;DHT22;25777;47.824;18.982;2023-04-25T15:35:42;14.50;68.50
40077;DHT22;25777;47.824;18.982;2023-04-25T15:38:14;14.40;68.30
40077;DHT22;25777;47.824;18.982;2023-04-25T15:40:40;14.30;70.80
40077;DHT22;25777;47.824;18.982;2023-04-25T15:43:06;14.30;73.30
40077;DHT22;25777;47.824;18.982;2023-04-25T15:45:32;14.20;72.70
40077;DHT22;25777;47.824;18.982;2023-04-25T15:47:58;14.10;71.90
40077;DHT22;25777;47.824;18.982;2023-04-25T15:55:28;13.70;73.90
40077;DHT22;25777;47.824;18.982;2023-04-25T15:57:53;13.70;72.80
40077;DHT22;25777;47.824;18.982;2023-04-25T16:00:20;13.70;76.00
40077;DHT22;25777;47.824;18.982;2023-04-25T16:02:47;13.70;78.90
40077;DHT22;25777;47.824;18.982;2023-04-25T16:05:15;13.70;80.30
40077;DHT22;25777;47.824;18.982;2023-04-25T16:07:43;13.50;83.30
40077;DHT22;25777;47.824;18.982;2023-04-25T16:10:10;13.40;87.70
40077;DHT22;25777;47.824;18.982;2023-04-25T16:15:09;13.30;84.90
40077;DHT22;25777;47.824;18.982;2023-04-25T16:17:36;13.50;81.40
40077;DHT22;25777;47.824;18.982;2023-04-25T16:20:02;13.40;80.80
40077;DHT22;25777;47.824;18.982;2023-04-25T16:22:45;13.40;81.00
40077;DHT22;25777;47.824;18.982;2023-04-25T16:25:22;13.40;80.80
40077;DHT22;25777;47.824;18.982;2023-04-25T16:27:47;13.40;81.40
40077;DHT22;25777;47.824;18.982;2023-04-25T16:30:14;13.30;83.20
40077;DHT22;25777;47.824;18.982;2023-04-25T16:32:47;13.30;82.60
40077;DHT22;25777;47.824;18.982;2023-04-25T16:35:13;13.30;82.90
40077;DHT22;25777;47.824;18.982;2023-04-25T16:37:39;13.30;84.00
40077;DHT22;25777;47.824;18.982;2023-04-25T16:40:11;13.30;85.60
40077;DHT22;25777;47.824;18.982;2023-04-25T16:42:37;13.20;83.10
40077;DHT22;25777;47.824;18.982;2023-04-25T16:45:04;13.20;82.70
40077;DHT22;25777;47.824;18.982;2023-04-25T16:47:36;13.10;84.50
40077;DHT22;25777;47.824;18.982;2023-04-25T16:50:03;12.90;87.50
40077;DHT22;25777;47.824;18.982;2023-04-25T16:52:30;12.80;84.10
40077;DHT22;25777;47.824;18.982;2023-04-25T16:54:57;12.70;84.40
40077;DHT22;25777;47.824;18.982;2023-04-25T16:57:28;12.70;84.00
40077;DHT22;25777;47.824;18.982;2023-04-25T16:59:56;12.60;83.20
40077;DHT22;25777;47.824;18.982;2023-04-25T17:02:22;12.60;83.50
40077;DHT22;25777;47.824;18.982;2023-04-25T17:04:47;12.60;83.20
40077;DHT22;25777;47.824;18.982;2023-04-25T17:07:13;12.50;83.80
40077;DHT22;25777;47.824;18.982;2023-04-25T17:09:40;12.50;85.80
40077;DHT22;25777;47.824;18.982;2023-04-25T17:12:06;12.40;86.00
40077;DHT22;25777;47.824;18.982;2023-04-25T17:14:32;12.30;88.90
40077;DHT22;25777;47.824;18.982;2023-04-25T17:17:00;12.10;89.10
40077;DHT22;25777;47.824;18.982;2023-04-25T17:19:26;12.00;89.70
40077;DHT22;25777;47.824;18.982;2023-04-25T17:21:52;11.90;89.80
40077;DHT22;25777;47.824;18.982;2023-04-25T17:24:19;12.00;90.90
40077;DHT22;25777;47.824;18.982;2023-04-25T17:26:46;11.90;90.90
40077;DHT22;25777;47.824;18.982;2023-04-25T17:29:12;11.80;89.30
40077;DHT22;25777;47.824;18.982;2023-04-25T17:31:37;11.90;91.00
40077;DHT22;25777;47.824;18.982;2023-04-25T17:34:03;11.80;90.50
40077;DHT22;25777;47.824;18.982;2023-04-25T17:36:35;11.60;92.10
40077;DHT22;25777;47.824;18.982;2023-04-25T17:39:03;11.60;93.40
40077;DHT22;25777;47.824;18.982;2023-04-25T17:41:32;11.40;94.60
40077;DHT22;25777;47.824;18.982;2023-04-25T17:44:03;11.30;95.20
40077;DHT22;25777;47.824;18.982;2023-04-25T17:46:29;11.20;96.20
40077;DHT22;25777;47.824;18.982;2023-04-25T17:48:55;11.10;97.00
40077;DHT22;25777;47.824;18.982;2023-04-25T17:51:24;10.90;97.40
40077;DHT22;25777;47.824;18.982;2023-04-25T17:53:56;10.80;98.40